Sled Dog Central Your on-line sled dog advertising & information source! top
Sled Dog Central Home Page Current Classifieds Advertise on SDC Race Info Search Site Index Contact Us
 

Kalkaska Winterfest Midwest International Sled Dog Race
Kalkaska, Michigan, USA

March 3-4, 2012

Return to USA Midwest Race Results List

Results provided by Margaret Harvey, www.kalkaskawinterfest.com/

Conditions:
Saturday: Overnight blizzard with 15+ inches of wet, heavy snow caused many trees and branches to fall on the sled dog trail, which had to be removed before the trail could be re-packed. It was determined by the trail boss and Race Marshall that the only option was to cancel the events of the day, work on the trail,  and conduct a one day race on Sunday.

Sunday: Temps ranged from 14 to 17 degrees, partly to mostly sunny, light to moderate winds, the trail conditions and surface preparation were nothing short of a miracle!

Note: Unlimited/10-Dog class and 8-Dog class ran different mileages than originally posted, using the 6-Dog trail and making an extra loop, due to the storm damage to the longer trail that is normally used.

Whoa--did you ask for (this much) snow?

Photos provided by Jim Collins

1 Dog Junior | 2 Dog Junior | 3 Dog Junior | 2 Dog Skijoring | 4 Dog | 6 Dog | 8 Dog | Unlimited/10 Dog

Place Name Day 1 Day 2 Total Time
1 Dog Junior (100 yds)
1 Alyssa Lantzer   :17.31 :17.31
2 Ruby Short   :21.09 :21.09
3 Emma Person   :22.67 :22.67
4 Sedona Jones   :24.16 :24.16
5 Annie Bergmann   :24.26 :24.26
6 Pearl Short   :36.56 :36.56
7 Lilly Betten   :37.79 :37.79
8 Abigail Byykkonen   :50.18 :50.18
2 Dog Junior (1.6 miles)
1 Drake Collins   9:11.54 9:11.54
2 John Bzdok   10:10.34 10:10.34
3 Gracie Kimball   10:47.44 10:47.44
4 Lilly Betten   11:27.73 11:27.73
5 Leah VandeWarker   11:42.39 11:42.39
6 Emily Rodenhouse   11:48.65 11:48.65
7 Victoria Byykkonen   11:50.27 11:50.27
8 Audrey Byykkonen   13:59.86 13:59.86
9 MiKayla Verkuilen   15:56.44 15:56.44
10 Emma Person   16:27.00 16:27.00
3 Dog Junior (4.8 miles)
1 Mollie Rodenhouse   19:26.56 19:26.56
2 Drake Collins   21:22.80 21:22.80
3 Cassie Linn   21:28.15 21:28.15
4 Joseph Carey   22:22.90 22:22.90
5 Aurora Linn   22:51.82 22:51.82
6 Jaymie Bzdok   23:28.03 23:28.03
7 Tristan Clay   23:59.05 23:59.05
8 Emma Person   33:10.80 33:10.80
2 Dog Skijoring (4.8 miles)
1 Abby Heistad   19:04.00 19:04.00
2 Eran Menard   24:32.35 24:32.35
3 Kerry Mosko   26:12.21 26:12.21
4 Dog (4.8 miles)
1 Jay Olmstead   15:33.64 15:33.64
2 Luke Siertsema   16:10.10 16:10.10
3 Beth Castaldi   16:20.44 16:20.44
4 Jenna Dittmar-Blado   16:58.05 16:58.05
5 Forest Collins   17:07.79 17:07.79
6 Richard Korb   17:17.15 17:17.15
7 Matt Woudenberg   17:30.29 17:30.29
8 Eran Menard   17:45.59 17:45.59
9 Sherry Johnson   18:56.75 18:56.75
10 Jordyn Bzdok   19:12.63 19:12.63
11 Rex Jones   19:52.52 19:52.52
12 Patty Lewison   20:04.47 20:04.47
13 Tanya Menard   20:10.76 20:10.76
14 Susan Gilchrist   20:43.66 20:43.66
15 Leigh Gilchrist   21:15.59 21:15.59
16 Anna Vachow   21:32.34 21:32.34
17 Laurel Turansky   22:09.89 22:09.89
18 Doug Jones   23:02.61 23:02.61
19 Ellen Southern   23:46.44 23:46.44
20 Stu Stirrett   24:24.06 24:24.06
21 Donna Koepp   24:26.83 24:26.83
22 Carey E. Green   25:09.36 25:09.36
23 Jason Bockheim   25:33.86 25:33.86
24 Matt Rowbotham   26:28.08 26:28.08
25 Nate Esterline   27:52.39 27:52.39
26 Kristine Weinberg   28:31.83 28:31.83
27 Alden Leatherman   35:37.19 35:37.19
28 Francie Dorman   36:38.73 36:38.73
29 Ken Frizzle   40:20.58 40:20.58
30 Stephen Domantay   41:03.14 41:03.14
31 Christopher Seminatore   48:00.61 48:00.61
6 Dog (6.6 miles)
1 Gary Frank   21:41.99 21:41.99
2 Mandy Collins   22:23.35 22:23.35
3 Michael Siertsema   22:42.34 22:42.34
4 Jenna Dittmar-Blado   22:50.99 22:50.99
5 Richard Korb   23:56.77 23:56.77
6 Sherry Johnson   24:20.75 24:20.75
7 Ken Castaldi   25:33.31 25:33.31
8 Susan Gilchrist   25:39.99 25:39.99
9 Douglas Frank   25:49.32 25:49.32
10 Tim Kimball   26:03.96 26:03.96
11 Stu Stirrett   26:44.76 26:44.76
12 AJ Schibelhut   26:56.17 26:56.17
13 Mary Groth   28:09.99 28:09.99
14 Rex Jones   29:15.18 29:15.18
15 Laurel Turansky   29:16.79 29:16.79
16 Lynzie Bacchus   29:41.40 29:41.40
17 Kim Webber   31:21.73 31:21.73
18 Beth Scott   31:43.31 31:43.31
19 Abby Leatherman   34:19.95 34:19.95
20 Nate Esterline   34:29.49 34:29.49
21 Shelby Person   34:42.43 34:42.43
22 Dan Briggs   34:42.48 34:42.48
23 Ellen Person   35:26.64 35:26.64
24 Daniel Moll   35:48.35 35:48.35
25 Frank Wright   36:57.88 36:57.88
8 Dog (10.4 miles)
1 Leigh Gilchrist   38:33.47 38:33.47
2 Bob Bzdok   39:35.41 39:35.41
3 Lynzie Bacchus   42:25.48 42:25.48
4 Michelle Savich   43:16.46 43:16.46
5 Mike Walker   1:34:41.73 1:34:41.73
Unlimited/10 Dog (10.4 miles)
1 Shane McRae   36:09.60 36:09.60
2 Jan Bootz-Dittmar

 

36:15.57 36:15.57
3 Richard Korb   37:23.68 37:23.68
4 Jason Rodenhouse   37:24.83 37:24.83
5 Rachel Rodenhouse   39:00.51 39:00.51

Back to Top

Copyright 1997-2016 Sled Dog Central, all rights reserved.
Email Sled Dog Central